Time;durP1;ratioP1;P1;durP2;ratioP2;P2;SDS_P1;SDS_P2;PMS_P1;PMS_P2;Temp;Humidity;BMP_temperature;BMP_pressure;BME280_temperature;BME280_humidity;BME280_pressure;Samples;Min_cycle;Max_cycle;Signal;HPM_P1;HPM_P2
2023/09/25 00:00:30;;;;;;;0.80;0.80;;;;;;;;;;5115345;28;20443;-62
2023/09/25 00:02:57;;;;;;;0.80;0.80;;;;;;;;;;5115651;28;20436;-62
2023/09/25 00:05:25;;;;;;;0.80;0.80;;;;;;;;;;5115880;28;20470;-62
2023/09/25 00:07:54;;;;;;;0.80;0.80;;;;;;;;;;5116124;28;20539;-62
2023/09/25 00:10:21;;;;;;;0.80;0.80;;;;;;;;;;5115292;28;20449;-62
2023/09/25 00:12:48;;;;;;;0.80;0.80;;;;;;;;;;5115392;28;20437;-62
2023/09/25 00:15:16;;;;;;;0.80;0.80;;;;;;;;;;5115104;28;20827;-62
2023/09/25 00:17:43;;;;;;;0.80;0.80;;;;;;;;;;5115878;28;20507;-62
2023/09/25 00:20:11;;;;;;;0.90;0.90;;;;;;;;;;5114843;28;20453;-63
2023/09/25 00:22:39;;;;;;;0.80;0.80;;;;;;;;;;5114791;28;20440;-62
2023/09/25 00:25:08;;;;;;;0.80;0.80;;;;;;;;;;5114811;28;20558;-62
2023/09/25 00:27:35;;;;;;;0.83;0.83;;;;;;;;;;5115402;28;20443;-62
2023/09/25 00:30:05;;;;;;;0.80;0.80;;;;;;;;;;5115354;28;20803;-62
2023/09/25 00:32:33;;;;;;;0.80;0.80;;;;;;;;;;5115324;28;20449;-62
2023/09/25 00:35:00;;;;;;;0.80;0.80;;;;;;;;;;5114870;28;20428;-62
2023/09/25 00:37:27;;;;;;;0.80;0.80;;;;;;;;;;5114524;28;20476;-62
2023/09/25 00:39:55;;;;;;;0.80;0.80;;;;;;;;;;5115144;28;20431;-62
2023/09/25 00:42:24;;;;;;;0.80;0.80;;;;;;;;;;5114957;28;20451;-62
2023/09/25 00:44:51;;;;;;;0.80;0.80;;;;;;;;;;5114729;28;20435;-62
2023/09/25 00:47:18;;;;;;;0.90;0.90;;;;;;;;;;5114785;28;20439;-62
2023/09/25 00:49:46;;;;;;;0.70;0.70;;;;;;;;;;5114673;28;20447;-62
2023/09/25 00:52:13;;;;;;;0.80;0.80;;;;;;;;;;5114698;28;20525;-62
2023/09/25 00:54:41;;;;;;;0.80;0.80;;;;;;;;;;5114247;28;20995;-62
2023/09/25 00:57:09;;;;;;;0.80;0.80;;;;;;;;;;5113974;28;20476;-62
2023/09/25 00:59:40;;;;;;;0.80;0.80;;;;;;;;;;5114248;28;20528;-63
2023/09/25 01:02:07;;;;;;;0.77;0.77;;;;;;;;;;5114205;28;20511;-62
2023/09/25 01:04:35;;;;;;;0.80;0.80;;;;;;;;;;5114709;28;20773;-63
2023/09/25 01:07:03;;;;;;;0.80;0.80;;;;;;;;;;5114041;28;20453;-62
2023/09/25 01:09:30;;;;;;;0.80;0.80;;;;;;;;;;5114240;28;20535;-62
2023/09/25 01:11:57;;;;;;;0.80;0.80;;;;;;;;;;5113874;28;20964;-62
2023/09/25 01:14:24;;;;;;;0.80;0.80;;;;;;;;;;5114552;28;20539;-62
2023/09/25 01:16:53;;;;;;;0.80;0.80;;;;;;;;;;5114334;28;20457;-62
2023/09/25 01:19:21;;;;;;;0.80;0.80;;;;;;;;;;5114357;28;20447;-63
2023/09/25 01:21:49;;;;;;;0.80;0.80;;;;;;;;;;5114277;28;20895;-63
2023/09/25 01:24:17;;;;;;;0.80;0.80;;;;;;;;;;5114192;28;20458;-63
2023/09/25 01:26:44;;;;;;;0.80;0.80;;;;;;;;;;5114010;28;20485;-62
2023/09/25 01:29:11;;;;;;;0.83;0.83;;;;;;;;;;5113690;28;20449;-63
2023/09/25 01:31:39;;;;;;;0.80;0.80;;;;;;;;;;5113945;28;20473;-63
2023/09/25 01:34:06;;;;;;;0.83;0.83;;;;;;;;;;5114011;28;20433;-62
2023/09/25 01:36:33;;;;;;;0.90;0.90;;;;;;;;;;5113822;28;20463;-63
2023/09/25 01:39:02;;;;;;;0.80;0.80;;;;;;;;;;5113627;28;20479;-62
2023/09/25 01:41:30;;;;;;;0.90;0.90;;;;;;;;;;5113847;28;20784;-62
2023/09/25 01:43:57;;;;;;;0.80;0.80;;;;;;;;;;5113871;28;20526;-62
2023/09/25 01:46:24;;;;;;;0.80;0.80;;;;;;;;;;5113715;28;20530;-63
2023/09/25 01:48:51;;;;;;;0.80;0.80;;;;;;;;;;5113472;28;20442;-63
2023/09/25 01:51:18;;;;;;;0.80;0.80;;;;;;;;;;5113878;28;20785;-63
2023/09/25 01:53:49;;;;;;;0.80;0.80;;;;;;;;;;5114144;28;20537;-63
2023/09/25 01:56:17;;;;;;;0.90;0.90;;;;;;;;;;5113892;28;20489;-62
2023/09/25 01:58:44;;;;;;;0.80;0.80;;;;;;;;;;5113812;28;20473;-62
2023/09/25 02:01:12;;;;;;;0.80;0.80;;;;;;;;;;5113558;28;20520;-62
2023/09/25 02:03:39;;;;;;;0.83;0.83;;;;;;;;;;5113327;28;20555;-62
2023/09/25 02:06:07;;;;;;;0.80;0.80;;;;;;;;;;5113433;28;20616;-62
2023/09/25 02:08:34;;;;;;;0.80;0.80;;;;;;;;;;5113940;28;20490;-62
2023/09/25 02:11:02;;;;;;;0.93;0.93;;;;;;;;;;5118121;28;20445;-63
2023/09/25 02:13:30;;;;;;;0.80;0.80;;;;;;;;;;5117449;28;20959;-62
2023/09/25 02:15:57;;;;;;;0.80;0.80;;;;;;;;;;5118122;28;20526;-63
2023/09/25 02:18:25;;;;;;;0.90;0.90;;;;;;;;;;5117631;28;20475;-63
2023/09/25 02:20:52;;;;;;;0.80;0.80;;;;;;;;;;5117497;28;20439;-63
2023/09/25 02:23:19;;;;;;;0.83;0.83;;;;;;;;;;5117702;28;20439;-63
2023/09/25 02:25:46;;;;;;;0.80;0.80;;;;;;;;;;5117747;28;20466;-63
2023/09/25 02:28:14;;;;;;;0.80;0.80;;;;;;;;;;5117153;28;20439;-63
2023/09/25 02:30:42;;;;;;;0.80;0.80;;;;;;;;;;5117176;28;20952;-62
2023/09/25 02:33:10;;;;;;;0.80;0.80;;;;;;;;;;5117240;28;20440;-63
2023/09/25 02:35:37;;;;;;;0.80;0.80;;;;;;;;;;5117400;28;20444;-62
2023/09/25 02:38:05;;;;;;;0.80;0.80;;;;;;;;;;5117339;28;20484;-63
2023/09/25 02:40:33;;;;;;;0.90;0.90;;;;;;;;;;5116991;28;20454;-62
2023/09/25 02:43:00;;;;;;;0.80;0.80;;;;;;;;;;5117114;28;20435;-63
2023/09/25 02:45:28;;;;;;;0.80;0.80;;;;;;;;;;5116976;28;20945;-63
2023/09/25 02:47:56;;;;;;;0.80;0.80;;;;;;;;;;5117317;28;20496;-63
2023/09/25 02:50:23;;;;;;;0.80;0.80;;;;;;;;;;5117174;28;20529;-62
2023/09/25 02:52:51;;;;;;;0.80;0.80;;;;;;;;;;5116864;28;20537;-62
2023/09/25 02:55:18;;;;;;;0.80;0.80;;;;;;;;;;5117286;28;20838;-62
2023/09/25 02:57:46;;;;;;;0.80;0.80;;;;;;;;;;5116748;28;20475;-62
2023/09/25 03:00:13;;;;;;;0.90;0.90;;;;;;;;;;5116814;28;20451;-62
2023/09/25 03:02:41;;;;;;;0.80;0.80;;;;;;;;;;5116412;28;21139;-62
2023/09/25 03:05:11;;;;;;;0.80;0.80;;;;;;;;;;5117467;28;20525;-62
2023/09/25 03:07:38;;;;;;;0.80;0.80;;;;;;;;;;5116228;28;20442;-62
2023/09/25 03:10:06;;;;;;;0.80;0.80;;;;;;;;;;5116716;28;20947;-62
2023/09/25 03:12:33;;;;;;;0.80;0.80;;;;;;;;;;5116520;28;20854;-62
2023/09/25 03:15:00;;;;;;;0.80;0.80;;;;;;;;;;5116575;28;20472;-62
2023/09/25 03:17:27;;;;;;;0.80;0.80;;;;;;;;;;5116324;28;20431;-62
2023/09/25 03:19:55;;;;;;;0.80;0.80;;;;;;;;;;5116370;28;20438;-62
2023/09/25 03:22:24;;;;;;;0.90;0.90;;;;;;;;;;5115970;28;21156;-62
2023/09/25 03:24:51;;;;;;;0.90;0.90;;;;;;;;;;5116441;28;20467;-62
2023/09/25 03:27:18;;;;;;;0.80;0.80;;;;;;;;;;5116195;28;20461;-62
2023/09/25 03:29:46;;;;;;;0.90;0.90;;;;;;;;;;5116382;28;20851;-62
2023/09/25 03:32:13;;;;;;;0.80;0.80;;;;;;;;;;5116274;28;20527;-62
2023/09/25 03:34:41;;;;;;;0.80;0.80;;;;;;;;;;5116143;28;20523;-62
2023/09/25 03:37:09;;;;;;;0.90;0.90;;;;;;;;;;5115963;28;20441;-62
2023/09/25 03:39:38;;;;;;;0.90;0.90;;;;;;;;;;5115991;28;20479;-62
2023/09/25 03:42:05;;;;;;;0.80;0.80;;;;;;;;;;5115646;28;20434;-63
2023/09/25 03:44:32;;;;;;;0.80;0.80;;;;;;;;;;5115659;28;20526;-62
2023/09/25 03:47:00;;;;;;;0.80;0.80;;;;;;;;;;5116217;28;20435;-62
2023/09/25 03:49:27;;;;;;;0.80;0.80;;;;;;;;;;5115752;28;20443;-61
2023/09/25 03:51:54;;;;;;;0.90;0.90;;;;;;;;;;5095636;28;20455;-62
2023/09/25 03:54:21;;;;;;;0.80;0.80;;;;;;;;;;5094792;28;20517;-62
2023/09/25 03:56:50;;;;;;;0.80;0.80;;;;;;;;;;5094610;28;20445;-62
2023/09/25 03:59:17;;;;;;;0.80;0.80;;;;;;;;;;5094260;28;20468;-62
2023/09/25 04:01:44;;;;;;;0.80;0.80;;;;;;;;;;5094828;28;20521;-62
2023/09/25 04:04:11;;;;;;;0.90;0.90;;;;;;;;;;5094617;28;20430;-62
2023/09/25 04:06:38;;;;;;;0.90;0.90;;;;;;;;;;5094108;28;20434;-62
2023/09/25 04:09:07;;;;;;;0.97;0.97;;;;;;;;;;5094493;28;21013;-62
2023/09/25 04:11:34;;;;;;;0.80;0.80;;;;;;;;;;5094354;28;20440;-62
2023/09/25 04:14:03;;;;;;;0.80;0.80;;;;;;;;;;5094536;28;20442;-62
2023/09/25 04:16:33;;;;;;;0.80;0.80;;;;;;;;;;5094755;28;20519;-63
2023/09/25 04:19:04;;;;;;;0.80;0.80;;;;;;;;;;5094247;28;20578;-62
2023/09/25 04:21:32;;;;;;;0.80;0.80;;;;;;;;;;5094648;28;20444;-62
2023/09/25 04:24:01;;;;;;;0.90;0.90;;;;;;;;;;5094605;28;20452;-62
2023/09/25 04:26:29;;;;;;;0.80;0.80;;;;;;;;;;5114737;28;20419;-62
2023/09/25 04:28:57;;;;;;;0.80;0.80;;;;;;;;;;5114132;28;20526;-62
2023/09/25 04:31:28;;;;;;;1.00;1.00;;;;;;;;;;5114056;28;20461;-62
2023/09/25 04:33:55;;;;;;;0.80;0.80;;;;;;;;;;5114703;28;20423;-62
2023/09/25 04:36:23;;;;;;;0.90;0.90;;;;;;;;;;5114910;28;20441;-61
2023/09/25 04:38:50;;;;;;;0.80;0.80;;;;;;;;;;5114077;28;20968;-62
2023/09/25 04:41:18;;;;;;;0.80;0.80;;;;;;;;;;5114715;28;20438;-62
2023/09/25 04:43:45;;;;;;;0.80;0.80;;;;;;;;;;5114524;28;20434;-62
2023/09/25 04:46:13;;;;;;;0.80;0.80;;;;;;;;;;5113911;28;20533;-62
2023/09/25 04:48:41;;;;;;;0.80;0.80;;;;;;;;;;5114208;28;20440;-62
2023/09/25 04:51:09;;;;;;;0.80;0.80;;;;;;;;;;5113851;28;20438;-61
2023/09/25 04:53:37;;;;;;;1.00;1.00;;;;;;;;;;5114009;28;20896;-61
2023/09/25 04:56:05;;;;;;;0.80;0.80;;;;;;;;;;5114133;28;20447;-61
2023/09/25 04:58:32;;;;;;;0.80;0.80;;;;;;;;;;5114118;28;20479;-62
2023/09/25 05:00:59;;;;;;;0.80;0.80;;;;;;;;;;5114477;28;20454;-61
2023/09/25 05:03:26;;;;;;;0.80;0.80;;;;;;;;;;5113882;28;20447;-62
2023/09/25 05:05:55;;;;;;;0.80;0.80;;;;;;;;;;5114168;28;20801;-61
2023/09/25 05:08:23;;;;;;;0.80;0.80;;;;;;;;;;5114076;28;20443;-61
2023/09/25 05:10:50;;;;;;;0.80;0.80;;;;;;;;;;5113999;28;20437;-61
2023/09/25 05:13:17;;;;;;;0.80;0.80;;;;;;;;;;5113686;28;20434;-62
2023/09/25 05:15:44;;;;;;;0.80;0.80;;;;;;;;;;5113826;28;20451;-61
2023/09/25 05:18:11;;;;;;;0.80;0.80;;;;;;;;;;5113726;28;20601;-61
2023/09/25 05:20:39;;;;;;;0.80;0.80;;;;;;;;;;5113922;28;20441;-61
2023/09/25 05:23:07;;;;;;;0.90;0.90;;;;;;;;;;5113614;28;20435;-61
2023/09/25 05:25:34;;;;;;;0.80;0.80;;;;;;;;;;5113407;28;20486;-61
2023/09/25 05:28:02;;;;;;;0.83;0.83;;;;;;;;;;5113621;28;20426;-61
2023/09/25 05:30:29;;;;;;;0.80;0.80;;;;;;;;;;5113829;28;20440;-61
2023/09/25 05:32:56;;;;;;;0.80;0.80;;;;;;;;;;5113616;28;20443;-61
2023/09/25 05:35:24;;;;;;;0.80;0.80;;;;;;;;;;5113540;28;21015;-61
2023/09/25 05:37:51;;;;;;;0.80;0.80;;;;;;;;;;5113821;28;20481;-61
2023/09/25 05:40:20;;;;;;;0.80;0.80;;;;;;;;;;5113421;28;20466;-61
2023/09/25 05:42:47;;;;;;;0.90;0.90;;;;;;;;;;5114309;28;20439;-61
2023/09/25 05:45:15;;;;;;;0.80;0.80;;;;;;;;;;5113237;28;20932;-61
2023/09/25 05:47:43;;;;;;;0.80;0.80;;;;;;;;;;5114249;28;20533;-61
2023/09/25 05:50:11;;;;;;;0.90;0.90;;;;;;;;;;5113549;28;20543;-61
2023/09/25 05:52:38;;;;;;;0.90;0.90;;;;;;;;;;5114022;28;20468;-61
2023/09/25 05:55:07;;;;;;;0.80;0.80;;;;;;;;;;5113825;28;20435;-61
2023/09/25 05:57:35;;;;;;;0.80;0.80;;;;;;;;;;5113665;28;20434;-61
2023/09/25 06:00:09;;;;;;;0.80;0.80;;;;;;;;;;5113279;28;20479;-61
2023/09/25 06:02:37;;;;;;;0.80;0.80;;;;;;;;;;5113779;28;20429;-61
2023/09/25 06:05:04;;;;;;;0.90;0.90;;;;;;;;;;5114129;28;20453;-62
2023/09/25 06:07:31;;;;;;;0.80;0.80;;;;;;;;;;5113586;28;20523;-61
2023/09/25 06:10:00;;;;;;;0.80;0.80;;;;;;;;;;5113187;28;20932;-61
2023/09/25 06:12:27;;;;;;;0.80;0.80;;;;;;;;;;5113863;28;20793;-61
2023/09/25 06:14:55;;;;;;;0.80;0.80;;;;;;;;;;5113645;28;20818;-61
2023/09/25 06:17:26;;;;;;;0.80;0.80;;;;;;;;;;5113450;28;20439;-61
2023/09/25 06:19:54;;;;;;;1.53;1.43;;;;;;;;;;5112950;28;20463;-61
2023/09/25 06:22:21;;;;;;;0.80;0.80;;;;;;;;;;5113167;28;20444;-61
2023/09/25 06:24:49;;;;;;;0.80;0.80;;;;;;;;;;5112955;28;20475;-61
2023/09/25 06:27:16;;;;;;;0.80;0.80;;;;;;;;;;5113026;28;20435;-61
2023/09/25 06:29:44;;;;;;;0.80;0.80;;;;;;;;;;5113490;28;20446;-61
2023/09/25 06:32:12;;;;;;;0.80;0.80;;;;;;;;;;5114043;28;20428;-61
2023/09/25 06:34:40;;;;;;;0.80;0.80;;;;;;;;;;5113102;28;20531;-61
2023/09/25 06:37:08;;;;;;;0.80;0.80;;;;;;;;;;5113730;28;20481;-61
2023/09/25 06:39:35;;;;;;;0.80;0.80;;;;;;;;;;5113048;28;20879;-61
2023/09/25 06:42:03;;;;;;;0.80;0.80;;;;;;;;;;5113011;28;20497;-61
2023/09/25 06:44:30;;;;;;;0.90;0.90;;;;;;;;;;5113086;28;20452;-62
2023/09/25 06:46:57;;;;;;;0.80;0.80;;;;;;;;;;5113479;28;20435;-61
2023/09/25 06:49:26;;;;;;;0.80;0.80;;;;;;;;;;5113186;28;20467;-61
2023/09/25 06:51:53;;;;;;;0.80;0.80;;;;;;;;;;5113129;28;20480;-61
2023/09/25 06:54:20;;;;;;;0.80;0.80;;;;;;;;;;5112714;28;20436;-61
2023/09/25 06:56:48;;;;;;;0.90;0.90;;;;;;;;;;5116552;28;20925;-61
2023/09/25 06:59:15;;;;;;;0.80;0.80;;;;;;;;;;5116518;28;20981;-61
2023/09/25 07:01:42;;;;;;;0.80;0.80;;;;;;;;;;5116449;28;20535;-61
2023/09/25 07:04:10;;;;;;;0.80;0.80;;;;;;;;;;5116838;28;20458;-61
2023/09/25 07:06:39;;;;;;;0.80;0.80;;;;;;;;;;5116863;28;20514;-61
2023/09/25 07:09:08;;;;;;;0.77;0.77;;;;;;;;;;5117019;28;20443;-61
2023/09/25 07:11:36;;;;;;;0.80;0.80;;;;;;;;;;5116722;28;20433;-61
2023/09/25 07:14:03;;;;;;;0.80;0.80;;;;;;;;;;5116625;28;20436;-61
2023/09/25 07:16:31;;;;;;;0.80;0.80;;;;;;;;;;5116576;28;20860;-61
2023/09/25 07:18:59;;;;;;;0.80;0.80;;;;;;;;;;5116205;28;20475;-61
2023/09/25 07:21:27;;;;;;;0.80;0.80;;;;;;;;;;5116193;28;20444;-61
2023/09/25 07:23:55;;;;;;;0.80;0.80;;;;;;;;;;5116347;28;20817;-61
2023/09/25 07:26:23;;;;;;;0.80;0.80;;;;;;;;;;5115807;28;20476;-61
2023/09/25 07:28:50;;;;;;;0.80;0.80;;;;;;;;;;5116583;28;20775;-61
2023/09/25 07:31:19;;;;;;;0.80;0.80;;;;;;;;;;5116258;28;20430;-61
2023/09/25 07:33:47;;;;;;;0.80;0.80;;;;;;;;;;5116035;28;20434;-61
2023/09/25 07:36:18;;;;;;;0.70;0.70;;;;;;;;;;5115994;28;20447;-62
2023/09/25 07:38:45;;;;;;;0.70;0.70;;;;;;;;;;5116416;28;20514;-62
2023/09/25 07:41:14;;;;;;;0.80;0.80;;;;;;;;;;5116167;28;20448;-61
2023/09/25 07:43:41;;;;;;;0.80;0.80;;;;;;;;;;5116079;28;20443;-61
2023/09/25 07:46:08;;;;;;;0.80;0.80;;;;;;;;;;5115701;28;20441;-62
2023/09/25 07:48:37;;;;;;;0.80;0.80;;;;;;;;;;5115871;28;20488;-61
2023/09/25 07:51:05;;;;;;;0.80;0.80;;;;;;;;;;5116414;28;20441;-62
2023/09/25 07:53:32;;;;;;;0.80;0.80;;;;;;;;;;5116299;28;20817;-61
2023/09/25 07:55:59;;;;;;;0.80;0.80;;;;;;;;;;5115796;28;20529;-62
2023/09/25 07:58:28;;;;;;;0.70;0.70;;;;;;;;;;5115848;28;20881;-61
2023/09/25 08:01:00;;;;;;;0.80;0.80;;;;;;;;;;5115241;28;20489;-62
2023/09/25 08:03:28;;;;;;;0.70;0.70;;;;;;;;;;5115491;28;20978;-62
2023/09/25 08:05:57;;;;;;;0.80;0.80;;;;;;;;;;5115900;28;20452;-62
2023/09/25 08:08:25;;;;;;;0.80;0.80;;;;;;;;;;5114933;28;20456;-62
2023/09/25 08:10:52;;;;;;;0.77;0.77;;;;;;;;;;5115500;28;20435;-62
2023/09/25 08:13:19;;;;;;;0.70;0.70;;;;;;;;;;5116038;28;20869;-63
2023/09/25 08:15:48;;;;;;;0.90;0.90;;;;;;;;;;5115606;28;20517;-62
2023/09/25 08:18:15;;;;;;;0.70;0.70;;;;;;;;;;5115229;28;20436;-62
2023/09/25 08:20:42;;;;;;;0.70;0.70;;;;;;;;;;5115728;28;20837;-62
2023/09/25 08:23:11;;;;;;;0.80;0.80;;;;;;;;;;5115510;28;20443;-62
2023/09/25 08:25:39;;;;;;;0.70;0.70;;;;;;;;;;5115630;28;20474;-61
2023/09/25 08:28:06;;;;;;;0.80;0.80;;;;;;;;;;5115309;28;20456;-62
2023/09/25 08:30:33;;;;;;;0.80;0.80;;;;;;;;;;5114773;28;20481;-62
2023/09/25 08:33:02;;;;;;;0.70;0.70;;;;;;;;;;5114397;28;20435;-62
2023/09/25 08:35:29;;;;;;;0.80;0.80;;;;;;;;;;5115191;28;20448;-62
2023/09/25 08:37:56;;;;;;;0.70;0.70;;;;;;;;;;5115055;28;20536;-62
2023/09/25 08:40:23;;;;;;;0.70;0.70;;;;;;;;;;5114941;28;20565;-62
2023/09/25 08:42:52;;;;;;;0.70;0.70;;;;;;;;;;5114454;28;20436;-62
2023/09/25 08:45:20;;;;;;;0.70;0.70;;;;;;;;;;5114570;28;20426;-62
2023/09/25 08:47:47;;;;;;;0.70;0.70;;;;;;;;;;5114798;28;20799;-62
2023/09/25 08:50:16;;;;;;;0.70;0.70;;;;;;;;;;5114976;28;20447;-62
2023/09/25 08:52:43;;;;;;;0.73;0.73;;;;;;;;;;5114276;28;20528;-62
2023/09/25 08:55:11;;;;;;;0.70;0.70;;;;;;;;;;5114740;28;20528;-62
2023/09/25 08:57:39;;;;;;;0.80;0.80;;;;;;;;;;5114709;28;20519;-62
2023/09/25 09:00:11;;;;;;;0.70;0.70;;;;;;;;;;5114541;28;20485;-62
2023/09/25 09:02:40;;;;;;;0.70;0.70;;;;;;;;;;5114517;28;20477;-62
2023/09/25 09:05:08;;;;;;;0.77;0.77;;;;;;;;;;5114569;28;20446;-62
2023/09/25 09:07:36;;;;;;;0.70;0.70;;;;;;;;;;5114608;28;20444;-62
2023/09/25 09:10:03;;;;;;;0.70;0.70;;;;;;;;;;5114209;28;20984;-62
2023/09/25 09:12:31;;;;;;;0.77;0.77;;;;;;;;;;5114475;28;20442;-62
2023/09/25 09:14:58;;;;;;;0.80;0.80;;;;;;;;;;5114078;28;20442;-61
2023/09/25 09:17:29;;;;;;;0.80;0.80;;;;;;;;;;5114177;28;20462;-62
2023/09/25 09:19:57;;;;;;;0.70;0.70;;;;;;;;;;5113998;28;20558;-61
2023/09/25 09:22:25;;;;;;;0.70;0.70;;;;;;;;;;5113943;28;20917;-62
2023/09/25 09:24:56;;;;;;;0.70;0.70;;;;;;;;;;5113729;28;20516;-62
2023/09/25 09:27:24;;;;;;;0.70;0.70;;;;;;;;;;5114203;28;20429;-62
2023/09/25 09:29:52;;;;;;;0.70;0.70;;;;;;;;;;5114199;28;20494;-61
2023/09/25 09:32:19;;;;;;;0.70;0.70;;;;;;;;;;5114055;28;20849;-62
2023/09/25 09:34:49;;;;;;;0.80;0.80;;;;;;;;;;5113746;28;20447;-61
2023/09/25 09:37:18;;;;;;;0.70;0.70;;;;;;;;;;5114907;28;20964;-62
2023/09/25 09:39:52;;;;;;;0.70;0.70;;;;;;;;;;5113764;28;20478;-61
2023/09/25 09:42:24;;;;;;;0.70;0.70;;;;;;;;;;5114580;28;20433;-62
2023/09/25 09:44:52;;;;;;;0.70;0.70;;;;;;;;;;5114186;28;20431;-61
2023/09/25 09:47:21;;;;;;;0.70;0.70;;;;;;;;;;5113808;28;20454;-62
2023/09/25 09:49:49;;;;;;;0.80;0.80;;;;;;;;;;5113855;28;20866;-61
2023/09/25 09:52:19;;;;;;;0.70;0.70;;;;;;;;;;5113703;28;20475;-62
2023/09/25 09:54:50;;;;;;;0.80;0.80;;;;;;;;;;5114088;28;20998;-61
2023/09/25 09:57:18;;;;;;;0.70;0.70;;;;;;;;;;5113420;28;20915;-62
2023/09/25 09:59:48;;;;;;;0.70;0.70;;;;;;;;;;5113383;28;20464;-61
2023/09/25 10:02:16;;;;;;;0.80;0.80;;;;;;;;;;5113986;28;20427;-62
2023/09/25 10:04:44;;;;;;;1.77;1.67;;;;;;;;;;5113407;28;20439;-62
2023/09/25 10:07:11;;;;;;;0.70;0.70;;;;;;;;;;5113308;28;20533;-62
2023/09/25 10:09:38;;;;;;;0.70;0.70;;;;;;;;;;5113993;28;20431;-61
2023/09/25 10:12:06;;;;;;;0.70;0.70;;;;;;;;;;5113637;28;20437;-61
2023/09/25 10:14:40;;;;;;;0.70;0.70;;;;;;;;;;5113287;28;20934;-62
2023/09/25 10:17:08;;;;;;;0.70;0.70;;;;;;;;;;5113648;28;20425;-61
2023/09/25 10:19:48;;;;;;;0.70;0.70;;;;;;;;;;5113441;28;20521;-62
2023/09/25 10:22:18;;;;;;;0.70;0.70;;;;;;;;;;5113465;28;20927;-61
2023/09/25 10:24:47;;;;;;;0.70;0.70;;;;;;;;;;5113961;28;20569;-61
2023/09/25 10:27:16;;;;;;;0.70;0.70;;;;;;;;;;5113495;28;20439;-61
2023/09/25 10:29:58;;;;;;;0.70;0.70;;;;;;;;;;5113697;28;20442;-62
2023/09/25 10:32:32;;;;;;;0.70;0.70;;;;;;;;;;5117156;28;20846;-61
2023/09/25 10:35:19;;;;;;;0.70;0.70;;;;;;;;;;5117448;28;20436;-62
2023/09/25 10:38:07;;;;;;;0.70;0.70;;;;;;;;;;5116956;28;20435;-62
2023/09/25 10:40:34;;;;;;;0.70;0.70;;;;;;;;;;5117582;28;20545;-62
2023/09/25 10:43:01;;;;;;;0.80;0.80;;;;;;;;;;5117610;28;20480;-62
2023/09/25 10:45:28;;;;;;;0.70;0.70;;;;;;;;;;5117304;28;20585;-62
2023/09/25 10:47:57;;;;;;;0.70;0.70;;;;;;;;;;5117129;28;20446;-62
2023/09/25 10:50:24;;;;;;;0.70;0.70;;;;;;;;;;5116978;28;20947;-62
2023/09/25 10:52:51;;;;;;;0.73;0.73;;;;;;;;;;5117001;28;20553;-62
2023/09/25 10:55:20;;;;;;;0.70;0.70;;;;;;;;;;5117202;28;20434;-62
2023/09/25 10:57:47;;;;;;;0.70;0.70;;;;;;;;;;5117346;28;20813;-62
2023/09/25 11:00:17;;;;;;;0.70;0.70;;;;;;;;;;5117033;28;20533;-62
2023/09/25 11:02:44;;;;;;;0.70;0.70;;;;;;;;;;5117037;28;20461;-62
2023/09/25 11:05:13;;;;;;;0.70;0.70;;;;;;;;;;5116916;28;20507;-62
2023/09/25 11:07:40;;;;;;;0.70;0.70;;;;;;;;;;5116982;28;20560;-62
2023/09/25 11:10:10;;;;;;;0.70;0.70;;;;;;;;;;5116480;28;20961;-62
2023/09/25 11:12:37;;;;;;;0.73;0.73;;;;;;;;;;5116865;28;20832;-62
2023/09/25 11:15:11;;;;;;;0.70;0.70;;;;;;;;;;5116456;28;20438;-62
2023/09/25 11:17:38;;;;;;;0.70;0.70;;;;;;;;;;5116447;28;20422;-62
2023/09/25 11:20:11;;;;;;;0.70;0.70;;;;;;;;;;5116451;28;20434;-62
2023/09/25 11:22:40;;;;;;;0.70;0.70;;;;;;;;;;5116438;28;21000;-61
2023/09/25 11:25:12;;;;;;;0.80;0.80;;;;;;;;;;5116644;28;20470;-62
2023/09/25 11:27:39;;;;;;;0.70;0.70;;;;;;;;;;5116870;28;20445;-61
2023/09/25 11:30:11;;;;;;;0.70;0.70;;;;;;;;;;5116364;28;20450;-62
2023/09/25 11:32:39;;;;;;;0.70;0.70;;;;;;;;;;5116850;28;20426;-62
2023/09/25 11:35:08;;;;;;;0.70;0.70;;;;;;;;;;5116556;28;20439;-62
2023/09/25 11:37:36;;;;;;;0.70;0.70;;;;;;;;;;5116019;28;20507;-62
2023/09/25 11:40:07;;;;;;;0.70;0.70;;;;;;;;;;5116391;28;20518;-62
2023/09/25 11:42:34;;;;;;;0.73;0.73;;;;;;;;;;5114959;28;20425;-62
2023/09/25 11:45:01;;;;;;;0.70;0.70;;;;;;;;;;5122552;27;20448;-62
2023/09/25 11:47:28;;;;;;;0.70;0.70;;;;;;;;;;5115722;28;20463;-62
2023/09/25 11:49:56;;;;;;;0.70;0.70;;;;;;;;;;5114948;28;20466;-62
2023/09/25 11:52:24;;;;;;;0.80;0.80;;;;;;;;;;5115058;28;20439;-62
2023/09/25 11:54:51;;;;;;;0.80;0.80;;;;;;;;;;5115373;28;20435;-62
2023/09/25 11:57:20;;;;;;;0.80;0.80;;;;;;;;;;5115530;28;20447;-62
2023/09/25 11:59:48;;;;;;;0.70;0.70;;;;;;;;;;5115213;28;20485;-62
2023/09/25 12:02:16;;;;;;;0.70;0.70;;;;;;;;;;5115577;28;20557;-62
2023/09/25 12:04:43;;;;;;;0.70;0.70;;;;;;;;;;5115570;28;20523;-62
2023/09/25 12:07:10;;;;;;;0.70;0.70;;;;;;;;;;5115896;28;20527;-62
2023/09/25 12:09:37;;;;;;;0.70;0.70;;;;;;;;;;5115210;28;20944;-62
2023/09/25 12:12:05;;;;;;;0.70;0.70;;;;;;;;;;5115103;28;20449;-62
2023/09/25 12:14:34;;;;;;;0.70;0.70;;;;;;;;;;5115646;28;20488;-62
2023/09/25 12:17:01;;;;;;;0.70;0.70;;;;;;;;;;5115150;28;20444;-62
2023/09/25 12:19:28;;;;;;;0.70;0.70;;;;;;;;;;5115251;28;20522;-62
2023/09/25 12:21:55;;;;;;;0.70;0.70;;;;;;;;;;5115087;28;20561;-62
2023/09/25 12:24:23;;;;;;;0.70;0.70;;;;;;;;;;5115501;28;20474;-61
2023/09/25 12:26:50;;;;;;;0.73;0.73;;;;;;;;;;5115039;28;20960;-62
2023/09/25 12:29:17;;;;;;;0.70;0.70;;;;;;;;;;5115237;28;20440;-62
2023/09/25 12:31:46;;;;;;;0.70;0.70;;;;;;;;;;5114687;28;20527;-62
2023/09/25 12:34:13;;;;;;;0.70;0.70;;;;;;;;;;5115075;28;20488;-62
2023/09/25 12:36:40;;;;;;;0.70;0.70;;;;;;;;;;5115207;28;20439;-62
2023/09/25 12:39:08;;;;;;;0.70;0.70;;;;;;;;;;5114641;28;20435;-62
2023/09/25 12:41:36;;;;;;;0.70;0.70;;;;;;;;;;5114238;28;20481;-62
2023/09/25 12:44:03;;;;;;;0.70;0.70;;;;;;;;;;5114975;28;20435;-62
2023/09/25 12:46:30;;;;;;;0.70;0.70;;;;;;;;;;5114817;28;20510;-62
2023/09/25 12:48:59;;;;;;;0.70;0.70;;;;;;;;;;5115130;28;20431;-62
2023/09/25 12:51:26;;;;;;;0.70;0.70;;;;;;;;;;5114217;28;20439;-62
2023/09/25 12:53:54;;;;;;;0.70;0.70;;;;;;;;;;5113956;28;20440;-62
2023/09/25 12:56:22;;;;;;;0.70;0.70;;;;;;;;;;5114908;28;20441;-61
2023/09/25 12:58:51;;;;;;;0.70;0.70;;;;;;;;;;5114532;28;20443;-61
2023/09/25 13:01:18;;;;;;;0.70;0.70;;;;;;;;;;5114328;28;20833;-62
2023/09/25 13:03:45;;;;;;;0.70;0.70;;;;;;;;;;5114688;28;20446;-62
2023/09/25 13:06:14;;;;;;;0.70;0.70;;;;;;;;;;5114490;28;20466;-62
2023/09/25 13:08:41;;;;;;;0.70;0.70;;;;;;;;;;5114494;28;20547;-62
2023/09/25 13:11:08;;;;;;;0.80;0.80;;;;;;;;;;5114240;28;20450;-62
2023/09/25 13:13:35;;;;;;;0.70;0.70;;;;;;;;;;5113962;28;20527;-63
2023/09/25 13:16:03;;;;;;;0.70;0.70;;;;;;;;;;5114214;28;20845;-62
2023/09/25 13:18:30;;;;;;;0.70;0.70;;;;;;;;;;5114294;28;20463;-62
2023/09/25 13:20:57;;;;;;;0.70;0.70;;;;;;;;;;5113696;28;20472;-62
2023/09/25 13:23:26;;;;;;;0.70;0.70;;;;;;;;;;5113729;28;20441;-61
2023/09/25 13:25:53;;;;;;;0.70;0.70;;;;;;;;;;5114096;28;20508;-61
2023/09/25 13:28:20;;;;;;;0.70;0.70;;;;;;;;;;5114040;28;20496;-62
2023/09/25 13:30:47;;;;;;;0.70;0.70;;;;;;;;;;5113496;28;20443;-62
2023/09/25 13:33:15;;;;;;;0.70;0.70;;;;;;;;;;5114325;28;20954;-62
2023/09/25 13:35:42;;;;;;;0.70;0.70;;;;;;;;;;5113685;28;20439;-62
2023/09/25 13:38:09;;;;;;;0.70;0.70;;;;;;;;;;5113606;28;20922;-62
2023/09/25 13:40:38;;;;;;;0.70;0.70;;;;;;;;;;5113737;28;20799;-62
2023/09/25 13:43:05;;;;;;;0.70;0.70;;;;;;;;;;5113569;28;20439;-62
2023/09/25 13:45:33;;;;;;;0.70;0.70;;;;;;;;;;5113692;28;20518;-62
2023/09/25 13:48:00;;;;;;;0.70;0.70;;;;;;;;;;5113736;28;20479;-62
2023/09/25 13:50:27;;;;;;;0.70;0.70;;;;;;;;;;5113162;28;20477;-64
2023/09/25 13:52:54;;;;;;;0.70;0.70;;;;;;;;;;5113562;28;20983;-68
2023/09/25 13:55:22;;;;;;;0.70;0.70;;;;;;;;;;5113796;28;20435;-69
2023/09/25 13:57:50;;;;;;;0.70;0.70;;;;;;;;;;5113628;28;20467;-66
2023/09/25 14:00:17;;;;;;;0.70;0.70;;;;;;;;;;5113248;28;20445;-67
2023/09/25 14:02:45;;;;;;;0.70;0.70;;;;;;;;;;5113405;28;20909;-64
2023/09/25 14:05:12;;;;;;;0.70;0.70;;;;;;;;;;5111908;28;20440;-64
2023/09/25 14:07:39;;;;;;;0.70;0.70;;;;;;;;;;5112772;28;20441;-64
2023/09/25 14:10:07;;;;;;;0.70;0.70;;;;;;;;;;5113508;28;20440;-64
2023/09/25 14:12:34;;;;;;;0.70;0.70;;;;;;;;;;5113164;28;20452;-64
2023/09/25 14:15:04;;;;;;;0.70;0.70;;;;;;;;;;5113242;28;20538;-64
2023/09/25 14:17:31;;;;;;;0.70;0.70;;;;;;;;;;5112809;28;20440;-64
2023/09/25 14:19:58;;;;;;;0.70;0.70;;;;;;;;;;5112949;28;20881;-64
2023/09/25 14:22:25;;;;;;;0.70;0.70;;;;;;;;;;5112959;28;20475;-64
2023/09/25 14:24:53;;;;;;;0.70;0.70;;;;;;;;;;5112902;28;20461;-64
2023/09/25 14:27:20;;;;;;;0.70;0.70;;;;;;;;;;5113266;28;20437;-64
2023/09/25 14:29:47;;;;;;;0.80;0.80;;;;;;;;;;5113348;28;20481;-64
2023/09/25 14:32:16;;;;;;;0.70;0.70;;;;;;;;;;5112993;28;21035;-64
2023/09/25 14:34:43;;;;;;;0.70;0.60;;;;;;;;;;5113090;28;21025;-64
2023/09/25 14:37:10;;;;;;;0.70;0.70;;;;;;;;;;5113319;28;20798;-64
2023/09/25 14:39:37;;;;;;;0.70;0.70;;;;;;;;;;5113451;28;20519;-64
2023/09/25 14:42:05;;;;;;;0.70;0.70;;;;;;;;;;5112910;28;20505;-64
2023/09/25 14:44:32;;;;;;;0.70;0.70;;;;;;;;;;5113623;28;20805;-64
2023/09/25 14:46:59;;;;;;;0.70;0.70;;;;;;;;;;5113117;28;20441;-64